sensor_id;sensor_type;location;lat;lon;timestamp;temperature;humidity
1379;DHT22;683;48.738;9.226;2023-02-21T00:00:20;5.10;92.50
1379;DHT22;683;48.738;9.226;2023-02-21T00:03:05;5.10;92.40
1379;DHT22;683;48.738;9.226;2023-02-21T00:06:27;5.10;92.50
1379;DHT22;683;48.738;9.226;2023-02-21T00:09:12;5.20;92.60
1379;DHT22;683;48.738;9.226;2023-02-21T00:11:57;5.20;92.60
1379;DHT22;683;48.738;9.226;2023-02-21T00:14:43;5.20;92.60
1379;DHT22;683;48.738;9.226;2023-02-21T00:17:27;5.20;92.70
1379;DHT22;683;48.738;9.226;2023-02-21T00:20:12;5.20;92.60
1379;DHT22;683;48.738;9.226;2023-02-21T00:22:57;5.20;92.60
1379;DHT22;683;48.738;9.226;2023-02-21T00:25:44;5.20;92.80
1379;DHT22;683;48.738;9.226;2023-02-21T00:28:31;5.20;92.80
1379;DHT22;683;48.738;9.226;2023-02-21T00:31:18;5.20;93.00
1379;DHT22;683;48.738;9.226;2023-02-21T00:34:03;5.20;93.00
1379;DHT22;683;48.738;9.226;2023-02-21T00:36:48;5.20;93.00
1379;DHT22;683;48.738;9.226;2023-02-21T00:39:33;5.10;92.90
1379;DHT22;683;48.738;9.226;2023-02-21T00:42:20;5.10;93.20
1379;DHT22;683;48.738;9.226;2023-02-21T00:45:06;5.10;93.20
1379;DHT22;683;48.738;9.226;2023-02-21T00:47:52;5.00;93.30
1379;DHT22;683;48.738;9.226;2023-02-21T00:50:36;5.00;93.60
1379;DHT22;683;48.738;9.226;2023-02-21T00:53:23;5.00;93.60
1379;DHT22;683;48.738;9.226;2023-02-21T00:56:09;5.00;93.80
1379;DHT22;683;48.738;9.226;2023-02-21T00:58:54;5.00;94.00
1379;DHT22;683;48.738;9.226;2023-02-21T01:01:38;5.00;94.00
1379;DHT22;683;48.738;9.226;2023-02-21T01:04:24;5.00;93.90
1379;DHT22;683;48.738;9.226;2023-02-21T01:10:56;5.00;93.90
1379;DHT22;683;48.738;9.226;2023-02-21T01:13:40;5.00;93.70
1379;DHT22;683;48.738;9.226;2023-02-21T01:16:27;5.10;93.80
1379;DHT22;683;48.738;9.226;2023-02-21T01:19:12;5.10;93.60
1379;DHT22;683;48.738;9.226;2023-02-21T01:21:58;5.10;93.50
1379;DHT22;683;48.738;9.226;2023-02-21T01:24:43;5.10;93.50
1379;DHT22;683;48.738;9.226;2023-02-21T01:27:28;5.20;93.60
1379;DHT22;683;48.738;9.226;2023-02-21T01:30:13;5.20;93.40
1379;DHT22;683;48.738;9.226;2023-02-21T01:32:58;5.20;93.50
1379;DHT22;683;48.738;9.226;2023-02-21T01:35:43;5.20;93.20
1379;DHT22;683;48.738;9.226;2023-02-21T01:38:32;5.10;93.30
1379;DHT22;683;48.738;9.226;2023-02-21T01:41:17;5.20;93.20
1379;DHT22;683;48.738;9.226;2023-02-21T01:44:05;5.10;93.20
1379;DHT22;683;48.738;9.226;2023-02-21T01:46:50;5.20;93.10
1379;DHT22;683;48.738;9.226;2023-02-21T01:49:38;5.20;93.00
1379;DHT22;683;48.738;9.226;2023-02-21T01:52:24;5.10;93.00
1379;DHT22;683;48.738;9.226;2023-02-21T01:55:13;5.20;92.90
1379;DHT22;683;48.738;9.226;2023-02-21T01:57:58;5.20;92.80
1379;DHT22;683;48.738;9.226;2023-02-21T02:00:43;5.20;92.80
1379;DHT22;683;48.738;9.226;2023-02-21T02:03:30;5.20;92.80
1379;DHT22;683;48.738;9.226;2023-02-21T02:06:17;5.10;93.00
1379;DHT22;683;48.738;9.226;2023-02-21T02:09:14;5.10;93.00
1379;DHT22;683;48.738;9.226;2023-02-21T02:12:16;5.10;92.90
1379;DHT22;683;48.738;9.226;2023-02-21T02:14:59;5.20;92.90
1379;DHT22;683;48.738;9.226;2023-02-21T02:17:38;5.20;92.80
1379;DHT22;683;48.738;9.226;2023-02-21T02:23:48;5.20;92.70
1379;DHT22;683;48.738;9.226;2023-02-21T02:26:47;5.20;92.70
1379;DHT22;683;48.738;9.226;2023-02-21T02:29:41;5.30;92.70
1379;DHT22;683;48.738;9.226;2023-02-21T02:32:30;5.30;92.60
1379;DHT22;683;48.738;9.226;2023-02-21T02:35:08;5.30;92.50
1379;DHT22;683;48.738;9.226;2023-02-21T02:37:47;5.30;92.60
1379;DHT22;683;48.738;9.226;2023-02-21T02:40:23;5.30;92.50
1379;DHT22;683;48.738;9.226;2023-02-21T02:43:02;5.30;92.60
1379;DHT22;683;48.738;9.226;2023-02-21T02:45:35;5.30;92.60
1379;DHT22;683;48.738;9.226;2023-02-21T02:48:08;5.30;92.60
1379;DHT22;683;48.738;9.226;2023-02-21T02:50:40;5.40;92.50
1379;DHT22;683;48.738;9.226;2023-02-21T02:53:10;5.30;92.40
1379;DHT22;683;48.738;9.226;2023-02-21T02:55:42;5.30;92.60
1379;DHT22;683;48.738;9.226;2023-02-21T02:58:12;5.20;92.60
1379;DHT22;683;48.738;9.226;2023-02-21T03:00:46;5.20;92.70
1379;DHT22;683;48.738;9.226;2023-02-21T03:03:42;5.20;92.70
1379;DHT22;683;48.738;9.226;2023-02-21T03:06:22;5.20;92.70
1379;DHT22;683;48.738;9.226;2023-02-21T03:08:58;5.20;92.70
1379;DHT22;683;48.738;9.226;2023-02-21T03:11:29;5.20;92.70
1379;DHT22;683;48.738;9.226;2023-02-21T03:14:02;5.30;92.70
1379;DHT22;683;48.738;9.226;2023-02-21T03:16:34;5.30;92.80
1379;DHT22;683;48.738;9.226;2023-02-21T03:19:05;5.30;92.60
1379;DHT22;683;48.738;9.226;2023-02-21T03:21:37;5.40;92.60
1379;DHT22;683;48.738;9.226;2023-02-21T03:24:09;5.40;92.60
1379;DHT22;683;48.738;9.226;2023-02-21T03:26:40;5.40;92.50
1379;DHT22;683;48.738;9.226;2023-02-21T03:29:32;5.40;92.40
1379;DHT22;683;48.738;9.226;2023-02-21T03:32:06;5.40;92.50
1379;DHT22;683;48.738;9.226;2023-02-21T03:34:36;5.40;92.50
1379;DHT22;683;48.738;9.226;2023-02-21T03:37:07;5.40;92.60
1379;DHT22;683;48.738;9.226;2023-02-21T03:39:34;5.30;92.60
1379;DHT22;683;48.738;9.226;2023-02-21T03:42:02;5.30;92.70
1379;DHT22;683;48.738;9.226;2023-02-21T03:44:30;5.20;92.70
1379;DHT22;683;48.738;9.226;2023-02-21T03:46:58;5.20;92.70
1379;DHT22;683;48.738;9.226;2023-02-21T03:49:25;5.20;92.70
1379;DHT22;683;48.738;9.226;2023-02-21T03:51:53;5.20;92.80
1379;DHT22;683;48.738;9.226;2023-02-21T03:54:22;5.20;92.90
1379;DHT22;683;48.738;9.226;2023-02-21T03:56:52;5.20;92.90
1379;DHT22;683;48.738;9.226;2023-02-21T03:59:24;5.10;93.00
1379;DHT22;683;48.738;9.226;2023-02-21T04:01:52;5.00;93.10
1379;DHT22;683;48.738;9.226;2023-02-21T04:04:20;5.00;93.30
1379;DHT22;683;48.738;9.226;2023-02-21T04:06:56;4.90;93.30
1379;DHT22;683;48.738;9.226;2023-02-21T04:09:25;4.90;93.40
1379;DHT22;683;48.738;9.226;2023-02-21T04:11:56;4.90;93.40
1379;DHT22;683;48.738;9.226;2023-02-21T04:14:23;4.90;93.40
1379;DHT22;683;48.738;9.226;2023-02-21T04:16:51;4.90;93.50
1379;DHT22;683;48.738;9.226;2023-02-21T04:19:18;4.90;93.40
1379;DHT22;683;48.738;9.226;2023-02-21T04:21:46;4.90;93.50
1379;DHT22;683;48.738;9.226;2023-02-21T04:24:14;4.90;93.50
1379;DHT22;683;48.738;9.226;2023-02-21T04:26:43;4.80;93.60
1379;DHT22;683;48.738;9.226;2023-02-21T04:29:11;4.70;93.70
1379;DHT22;683;48.738;9.226;2023-02-21T04:31:39;4.70;93.90
1379;DHT22;683;48.738;9.226;2023-02-21T04:34:11;4.60;94.00
1379;DHT22;683;48.738;9.226;2023-02-21T04:36:42;4.50;94.10
1379;DHT22;683;48.738;9.226;2023-02-21T04:39:10;4.50;94.30
1379;DHT22;683;48.738;9.226;2023-02-21T04:41:38;4.40;94.40
1379;DHT22;683;48.738;9.226;2023-02-21T04:44:07;4.40;94.40
1379;DHT22;683;48.738;9.226;2023-02-21T04:46:35;4.30;94.60
1379;DHT22;683;48.738;9.226;2023-02-21T04:49:02;4.30;94.70
1379;DHT22;683;48.738;9.226;2023-02-21T04:51:29;4.20;94.70
1379;DHT22;683;48.738;9.226;2023-02-21T04:53:57;4.20;94.90
1379;DHT22;683;48.738;9.226;2023-02-21T04:56:25;4.20;95.20
1379;DHT22;683;48.738;9.226;2023-02-21T04:58:53;4.10;95.30
1379;DHT22;683;48.738;9.226;2023-02-21T05:01:26;4.20;95.20
1379;DHT22;683;48.738;9.226;2023-02-21T05:03:53;4.20;95.30
1379;DHT22;683;48.738;9.226;2023-02-21T05:06:22;4.10;95.30
1379;DHT22;683;48.738;9.226;2023-02-21T05:08:50;4.10;95.30
1379;DHT22;683;48.738;9.226;2023-02-21T05:11:18;4.10;95.40
1379;DHT22;683;48.738;9.226;2023-02-21T05:13:46;4.00;95.50
1379;DHT22;683;48.738;9.226;2023-02-21T05:16:14;3.90;95.80
1379;DHT22;683;48.738;9.226;2023-02-21T05:18:44;3.90;95.90
1379;DHT22;683;48.738;9.226;2023-02-21T05:21:12;3.80;96.20
1379;DHT22;683;48.738;9.226;2023-02-21T05:23:40;3.70;96.30
1379;DHT22;683;48.738;9.226;2023-02-21T05:26:22;3.70;96.50
1379;DHT22;683;48.738;9.226;2023-02-21T05:28:53;3.70;96.60
1379;DHT22;683;48.738;9.226;2023-02-21T05:31:21;3.60;96.80
1379;DHT22;683;48.738;9.226;2023-02-21T05:33:50;3.50;96.90
1379;DHT22;683;48.738;9.226;2023-02-21T05:36:18;3.40;97.10
1379;DHT22;683;48.738;9.226;2023-02-21T05:38:46;3.40;97.30
1379;DHT22;683;48.738;9.226;2023-02-21T05:41:14;3.30;97.40
1379;DHT22;683;48.738;9.226;2023-02-21T05:43:43;3.30;97.60
1379;DHT22;683;48.738;9.226;2023-02-21T05:46:17;3.20;97.80
1379;DHT22;683;48.738;9.226;2023-02-21T05:48:45;3.20;97.90
1379;DHT22;683;48.738;9.226;2023-02-21T05:51:14;3.20;98.10
1379;DHT22;683;48.738;9.226;2023-02-21T05:53:42;3.10;98.20
1379;DHT22;683;48.738;9.226;2023-02-21T05:56:10;3.10;98.20
1379;DHT22;683;48.738;9.226;2023-02-21T05:58:37;3.10;98.30
1379;DHT22;683;48.738;9.226;2023-02-21T06:01:04;3.10;98.60
1379;DHT22;683;48.738;9.226;2023-02-21T06:03:32;3.10;98.60
1379;DHT22;683;48.738;9.226;2023-02-21T06:05:59;3.10;98.60
1379;DHT22;683;48.738;9.226;2023-02-21T06:08:29;3.10;98.70
1379;DHT22;683;48.738;9.226;2023-02-21T06:10:56;3.10;98.80
1379;DHT22;683;48.738;9.226;2023-02-21T06:13:25;3.10;98.90
1379;DHT22;683;48.738;9.226;2023-02-21T06:15:54;3.10;99.00
1379;DHT22;683;48.738;9.226;2023-02-21T06:18:21;3.00;99.10
1379;DHT22;683;48.738;9.226;2023-02-21T06:20:48;3.00;99.20
1379;DHT22;683;48.738;9.226;2023-02-21T06:23:16;3.00;99.30
1379;DHT22;683;48.738;9.226;2023-02-21T06:25:44;3.00;99.40
1379;DHT22;683;48.738;9.226;2023-02-21T06:28:12;3.00;99.50
1379;DHT22;683;48.738;9.226;2023-02-21T06:30:39;3.00;99.50
1379;DHT22;683;48.738;9.226;2023-02-21T06:33:06;3.00;99.60
1379;DHT22;683;48.738;9.226;2023-02-21T06:35:33;3.00;99.60
1379;DHT22;683;48.738;9.226;2023-02-21T06:38:01;3.00;99.60
1379;DHT22;683;48.738;9.226;2023-02-21T06:40:28;3.00;99.60
1379;DHT22;683;48.738;9.226;2023-02-21T06:42:57;3.00;99.60
1379;DHT22;683;48.738;9.226;2023-02-21T06:45:24;3.00;99.50
1379;DHT22;683;48.738;9.226;2023-02-21T06:47:51;3.10;99.60
1379;DHT22;683;48.738;9.226;2023-02-21T06:50:19;3.10;99.60
1379;DHT22;683;48.738;9.226;2023-02-21T06:52:46;3.10;99.60
1379;DHT22;683;48.738;9.226;2023-02-21T06:55:18;3.20;99.60
1379;DHT22;683;48.738;9.226;2023-02-21T06:57:46;3.20;99.70
1379;DHT22;683;48.738;9.226;2023-02-21T07:00:16;3.40;99.70
1379;DHT22;683;48.738;9.226;2023-02-21T07:02:45;3.40;99.60
1379;DHT22;683;48.738;9.226;2023-02-21T07:05:12;3.50;99.40
1379;DHT22;683;48.738;9.226;2023-02-21T07:07:40;3.60;99.30
1379;DHT22;683;48.738;9.226;2023-02-21T07:10:09;3.70;99.00
1379;DHT22;683;48.738;9.226;2023-02-21T07:12:38;3.80;99.00
1379;DHT22;683;48.738;9.226;2023-02-21T07:15:06;3.90;98.90
1379;DHT22;683;48.738;9.226;2023-02-21T07:17:35;4.00;98.70
1379;DHT22;683;48.738;9.226;2023-02-21T07:20:03;4.20;98.50
1379;DHT22;683;48.738;9.226;2023-02-21T07:22:31;4.30;98.40
1379;DHT22;683;48.738;9.226;2023-02-21T07:25:00;4.40;98.20
1379;DHT22;683;48.738;9.226;2023-02-21T07:27:28;4.50;98.10
1379;DHT22;683;48.738;9.226;2023-02-21T07:29:55;4.70;97.90
1379;DHT22;683;48.738;9.226;2023-02-21T07:32:22;4.80;97.60
1379;DHT22;683;48.738;9.226;2023-02-21T07:34:51;4.90;97.40
1379;DHT22;683;48.738;9.226;2023-02-21T07:37:20;5.00;97.20
1379;DHT22;683;48.738;9.226;2023-02-21T07:39:47;5.10;96.80
1379;DHT22;683;48.738;9.226;2023-02-21T07:42:15;5.20;96.50
1379;DHT22;683;48.738;9.226;2023-02-21T07:44:45;5.30;96.40
1379;DHT22;683;48.738;9.226;2023-02-21T07:47:13;5.40;96.50
1379;DHT22;683;48.738;9.226;2023-02-21T07:49:40;5.60;96.40
1379;DHT22;683;48.738;9.226;2023-02-21T07:52:09;5.70;96.20
1379;DHT22;683;48.738;9.226;2023-02-21T07:54:36;5.70;96.00
1379;DHT22;683;48.738;9.226;2023-02-21T07:57:06;5.80;95.90
1379;DHT22;683;48.738;9.226;2023-02-21T07:59:34;5.90;96.00
1379;DHT22;683;48.738;9.226;2023-02-21T08:02:04;6.10;96.00
1379;DHT22;683;48.738;9.226;2023-02-21T08:04:31;6.20;95.90
1379;DHT22;683;48.738;9.226;2023-02-21T08:07:03;6.30;95.80
1379;DHT22;683;48.738;9.226;2023-02-21T08:09:34;6.40;95.80
1379;DHT22;683;48.738;9.226;2023-02-21T08:12:04;6.50;96.00
1379;DHT22;683;48.738;9.226;2023-02-21T08:14:32;6.60;96.10
1379;DHT22;683;48.738;9.226;2023-02-21T08:16:59;6.70;96.00
1379;DHT22;683;48.738;9.226;2023-02-21T08:19:26;6.60;95.70
1379;DHT22;683;48.738;9.226;2023-02-21T08:21:54;6.70;95.50
1379;DHT22;683;48.738;9.226;2023-02-21T08:24:21;6.70;95.40
1379;DHT22;683;48.738;9.226;2023-02-21T08:26:50;6.80;95.00
1379;DHT22;683;48.738;9.226;2023-02-21T08:29:17;6.90;95.00
1379;DHT22;683;48.738;9.226;2023-02-21T08:31:44;7.00;94.80
1379;DHT22;683;48.738;9.226;2023-02-21T08:34:13;7.10;94.80
1379;DHT22;683;48.738;9.226;2023-02-21T08:36:41;7.20;94.80
1379;DHT22;683;48.738;9.226;2023-02-21T08:39:09;7.30;94.60
1379;DHT22;683;48.738;9.226;2023-02-21T08:41:38;7.40;94.50
1379;DHT22;683;48.738;9.226;2023-02-21T08:44:09;7.60;94.20
1379;DHT22;683;48.738;9.226;2023-02-21T08:46:37;7.70;93.70
1379;DHT22;683;48.738;9.226;2023-02-21T08:49:05;7.90;93.60
1379;DHT22;683;48.738;9.226;2023-02-21T08:51:33;8.00;93.10
1379;DHT22;683;48.738;9.226;2023-02-21T08:54:01;8.20;92.90
1379;DHT22;683;48.738;9.226;2023-02-21T08:56:29;8.20;92.60
1379;DHT22;683;48.738;9.226;2023-02-21T08:58:56;8.20;92.20
1379;DHT22;683;48.738;9.226;2023-02-21T09:01:31;8.30;92.50
1379;DHT22;683;48.738;9.226;2023-02-21T09:03:59;8.30;92.40
1379;DHT22;683;48.738;9.226;2023-02-21T09:06:28;8.40;92.40
1379;DHT22;683;48.738;9.226;2023-02-21T09:08:56;8.50;92.30
1379;DHT22;683;48.738;9.226;2023-02-21T09:11:23;8.60;92.20
1379;DHT22;683;48.738;9.226;2023-02-21T09:13:51;8.80;92.00
1379;DHT22;683;48.738;9.226;2023-02-21T09:16:20;9.00;91.70
1379;DHT22;683;48.738;9.226;2023-02-21T09:18:57;9.20;91.60
1379;DHT22;683;48.738;9.226;2023-02-21T09:21:26;9.30;91.30
1379;DHT22;683;48.738;9.226;2023-02-21T09:23:55;9.50;91.10
1379;DHT22;683;48.738;9.226;2023-02-21T09:26:25;9.60;90.60
1379;DHT22;683;48.738;9.226;2023-02-21T09:28:57;9.60;90.50
1379;DHT22;683;48.738;9.226;2023-02-21T09:31:24;9.70;90.20
1379;DHT22;683;48.738;9.226;2023-02-21T09:33:51;9.80;90.20
1379;DHT22;683;48.738;9.226;2023-02-21T09:36:20;9.90;90.10
1379;DHT22;683;48.738;9.226;2023-02-21T09:38:49;10.00;89.20
1379;DHT22;683;48.738;9.226;2023-02-21T09:41:17;10.10;87.80
1379;DHT22;683;48.738;9.226;2023-02-21T09:43:47;10.10;88.00
1379;DHT22;683;48.738;9.226;2023-02-21T09:46:19;10.10;88.70
1379;DHT22;683;48.738;9.226;2023-02-21T09:48:47;10.10;87.20
1379;DHT22;683;48.738;9.226;2023-02-21T09:51:15;10.10;87.40
1379;DHT22;683;48.738;9.226;2023-02-21T09:53:48;10.10;87.60
1379;DHT22;683;48.738;9.226;2023-02-21T09:56:20;10.30;88.10
1379;DHT22;683;48.738;9.226;2023-02-21T09:58:54;10.50;88.50
1379;DHT22;683;48.738;9.226;2023-02-21T10:01:27;10.70;88.20
1379;DHT22;683;48.738;9.226;2023-02-21T10:04:06;10.90;87.50
1379;DHT22;683;48.738;9.226;2023-02-21T10:06:46;11.10;86.80
1379;DHT22;683;48.738;9.226;2023-02-21T10:09:23;11.10;85.90
1379;DHT22;683;48.738;9.226;2023-02-21T10:12:00;11.30;85.90
1379;DHT22;683;48.738;9.226;2023-02-21T10:14:38;11.50;85.10
1379;DHT22;683;48.738;9.226;2023-02-21T10:17:14;11.50;84.40
1379;DHT22;683;48.738;9.226;2023-02-21T10:19:46;11.60;85.10
1379;DHT22;683;48.738;9.226;2023-02-21T10:22:20;11.70;85.10
1379;DHT22;683;48.738;9.226;2023-02-21T10:24:50;11.80;84.80
1379;DHT22;683;48.738;9.226;2023-02-21T10:27:20;11.90;84.60
1379;DHT22;683;48.738;9.226;2023-02-21T10:29:50;11.90;83.40
1379;DHT22;683;48.738;9.226;2023-02-21T10:32:20;12.00;83.40
1379;DHT22;683;48.738;9.226;2023-02-21T10:34:48;12.10;83.20
1379;DHT22;683;48.738;9.226;2023-02-21T10:37:25;12.20;83.00
1379;DHT22;683;48.738;9.226;2023-02-21T10:39:59;12.20;82.70
1379;DHT22;683;48.738;9.226;2023-02-21T10:42:35;12.30;83.10
1379;DHT22;683;48.738;9.226;2023-02-21T10:45:05;12.30;82.20
1379;DHT22;683;48.738;9.226;2023-02-21T10:47:46;12.30;81.40
1379;DHT22;683;48.738;9.226;2023-02-21T10:50:15;12.40;81.20
1379;DHT22;683;48.738;9.226;2023-02-21T10:53:01;12.40;82.10
1379;DHT22;683;48.738;9.226;2023-02-21T10:55:30;12.60;82.20
1379;DHT22;683;48.738;9.226;2023-02-21T10:58:06;12.70;82.50
1379;DHT22;683;48.738;9.226;2023-02-21T11:00:36;12.70;80.40
1379;DHT22;683;48.738;9.226;2023-02-21T11:03:11;12.70;80.70
1379;DHT22;683;48.738;9.226;2023-02-21T11:05:48;12.80;80.80
1379;DHT22;683;48.738;9.226;2023-02-21T11:08:37;12.80;80.20
1379;DHT22;683;48.738;9.226;2023-02-21T11:11:07;12.90;80.30
1379;DHT22;683;48.738;9.226;2023-02-21T11:13:34;12.90;80.10
1379;DHT22;683;48.738;9.226;2023-02-21T11:16:11;13.00;80.70
1379;DHT22;683;48.738;9.226;2023-02-21T11:18:40;13.10;80.00
1379;DHT22;683;48.738;9.226;2023-02-21T11:21:12;13.10;78.90
1379;DHT22;683;48.738;9.226;2023-02-21T11:23:44;13.30;78.10
1379;DHT22;683;48.738;9.226;2023-02-21T11:26:14;13.30;77.60
1379;DHT22;683;48.738;9.226;2023-02-21T11:28:45;13.30;76.50
1379;DHT22;683;48.738;9.226;2023-02-21T11:31:25;13.30;76.60
1379;DHT22;683;48.738;9.226;2023-02-21T11:33:56;13.30;76.60
1379;DHT22;683;48.738;9.226;2023-02-21T11:36:27;13.40;75.80
1379;DHT22;683;48.738;9.226;2023-02-21T11:39:00;13.50;75.10
1379;DHT22;683;48.738;9.226;2023-02-21T11:41:35;13.40;75.40
1379;DHT22;683;48.738;9.226;2023-02-21T11:44:22;13.60;76.70
1379;DHT22;683;48.738;9.226;2023-02-21T11:46:57;13.70;75.30
1379;DHT22;683;48.738;9.226;2023-02-21T11:49:35;13.70;74.70
1379;DHT22;683;48.738;9.226;2023-02-21T11:52:10;13.80;74.60
1379;DHT22;683;48.738;9.226;2023-02-21T11:54:39;13.80;73.90
1379;DHT22;683;48.738;9.226;2023-02-21T11:57:13;13.90;74.00
1379;DHT22;683;48.738;9.226;2023-02-21T11:59:47;13.90;74.20
1379;DHT22;683;48.738;9.226;2023-02-21T12:02:47;14.10;72.70
1379;DHT22;683;48.738;9.226;2023-02-21T12:05:38;14.00;72.00
1379;DHT22;683;48.738;9.226;2023-02-21T12:08:28;14.10;72.50
1379;DHT22;683;48.738;9.226;2023-02-21T12:11:09;14.10;71.90
1379;DHT22;683;48.738;9.226;2023-02-21T12:13:49;14.20;71.80
1379;DHT22;683;48.738;9.226;2023-02-21T12:16:26;14.20;71.40
1379;DHT22;683;48.738;9.226;2023-02-21T12:19:09;14.20;71.70
1379;DHT22;683;48.738;9.226;2023-02-21T12:21:56;14.20;71.40
1379;DHT22;683;48.738;9.226;2023-02-21T12:24:34;14.30;72.30
1379;DHT22;683;48.738;9.226;2023-02-21T12:27:12;14.40;70.40
1379;DHT22;683;48.738;9.226;2023-02-21T12:29:54;14.40;70.60
1379;DHT22;683;48.738;9.226;2023-02-21T12:32:39;14.50;70.90
1379;DHT22;683;48.738;9.226;2023-02-21T12:35:40;14.60;69.60
1379;DHT22;683;48.738;9.226;2023-02-21T12:38:16;14.60;69.30
1379;DHT22;683;48.738;9.226;2023-02-21T12:40:53;14.60;69.50
1379;DHT22;683;48.738;9.226;2023-02-21T12:43:37;14.60;70.50
1379;DHT22;683;48.738;9.226;2023-02-21T12:46:18;14.60;69.90
1379;DHT22;683;48.738;9.226;2023-02-21T12:48:51;14.60;69.80
1379;DHT22;683;48.738;9.226;2023-02-21T12:51:24;14.60;69.00
1379;DHT22;683;48.738;9.226;2023-02-21T12:53:55;14.70;69.60
1379;DHT22;683;48.738;9.226;2023-02-21T12:56:26;14.80;68.40
1379;DHT22;683;48.738;9.226;2023-02-21T12:58:59;14.90;68.10
1379;DHT22;683;48.738;9.226;2023-02-21T13:01:31;15.00;68.60
1379;DHT22;683;48.738;9.226;2023-02-21T13:04:10;15.30;68.50
1379;DHT22;683;48.738;9.226;2023-02-21T13:06:44;15.50;67.10
1379;DHT22;683;48.738;9.226;2023-02-21T13:09:20;16.10;67.50
1379;DHT22;683;48.738;9.226;2023-02-21T13:11:54;16.70;65.00
1379;DHT22;683;48.738;9.226;2023-02-21T13:14:30;17.30;62.70
1379;DHT22;683;48.738;9.226;2023-02-21T13:16:59;17.90;61.00
1379;DHT22;683;48.738;9.226;2023-02-21T13:19:33;18.60;60.00
1379;DHT22;683;48.738;9.226;2023-02-21T13:26:02;19.70;56.70
1379;DHT22;683;48.738;9.226;2023-02-21T13:28:34;20.60;55.30
1379;DHT22;683;48.738;9.226;2023-02-21T13:31:05;21.10;54.70
1379;DHT22;683;48.738;9.226;2023-02-21T13:33:40;21.60;53.00
1379;DHT22;683;48.738;9.226;2023-02-21T13:36:20;21.90;52.20
1379;DHT22;683;48.738;9.226;2023-02-21T13:38:58;22.10;51.40
1379;DHT22;683;48.738;9.226;2023-02-21T13:41:33;22.70;50.20
1379;DHT22;683;48.738;9.226;2023-02-21T13:44:06;23.00;49.10
1379;DHT22;683;48.738;9.226;2023-02-21T13:47:10;23.30;48.90
1379;DHT22;683;48.738;9.226;2023-02-21T13:49:46;23.80;47.50
1379;DHT22;683;48.738;9.226;2023-02-21T13:52:35;24.00;47.60
1379;DHT22;683;48.738;9.226;2023-02-21T13:55:30;24.50;46.60
1379;DHT22;683;48.738;9.226;2023-02-21T14:03:58;24.80;44.60
1379;DHT22;683;48.738;9.226;2023-02-21T14:06:35;25.20;43.70
1379;DHT22;683;48.738;9.226;2023-02-21T14:09:09;25.50;43.30
1379;DHT22;683;48.738;9.226;2023-02-21T14:11:43;25.90;42.60
1379;DHT22;683;48.738;9.226;2023-02-21T14:14:25;26.30;41.90
1379;DHT22;683;48.738;9.226;2023-02-21T14:16:58;26.70;40.80
1379;DHT22;683;48.738;9.226;2023-02-21T14:19:35;26.90;40.70
1379;DHT22;683;48.738;9.226;2023-02-21T14:22:11;27.30;40.50
1379;DHT22;683;48.738;9.226;2023-02-21T14:24:42;27.90;38.70
1379;DHT22;683;48.738;9.226;2023-02-21T14:27:35;28.20;37.80
1379;DHT22;683;48.738;9.226;2023-02-21T14:30:31;28.60;36.60
1379;DHT22;683;48.738;9.226;2023-02-21T14:33:20;28.90;36.80
1379;DHT22;683;48.738;9.226;2023-02-21T14:35:57;29.40;34.80
1379;DHT22;683;48.738;9.226;2023-02-21T14:38:29;29.70;34.50
1379;DHT22;683;48.738;9.226;2023-02-21T14:41:11;30.10;33.20
1379;DHT22;683;48.738;9.226;2023-02-21T14:43:59;29.70;32.90
1379;DHT22;683;48.738;9.226;2023-02-21T14:47:09;28.00;34.60
1379;DHT22;683;48.738;9.226;2023-02-21T14:50:02;26.10;36.80
1379;DHT22;683;48.738;9.226;2023-02-21T14:53:00;24.40;38.90
1379;DHT22;683;48.738;9.226;2023-02-21T14:55:58;23.20;40.70
1379;DHT22;683;48.738;9.226;2023-02-21T14:58:48;22.10;41.60
1379;DHT22;683;48.738;9.226;2023-02-21T15:01:42;21.00;43.10
1379;DHT22;683;48.738;9.226;2023-02-21T15:04:19;20.20;44.70
1379;DHT22;683;48.738;9.226;2023-02-21T15:06:59;19.80;45.70
1379;DHT22;683;48.738;9.226;2023-02-21T15:09:28;19.20;46.80
1379;DHT22;683;48.738;9.226;2023-02-21T15:11:57;18.70;47.70
1379;DHT22;683;48.738;9.226;2023-02-21T15:14:29;18.30;49.00
1379;DHT22;683;48.738;9.226;2023-02-21T15:17:09;18.00;50.30
1379;DHT22;683;48.738;9.226;2023-02-21T15:19:37;17.60;50.60
1379;DHT22;683;48.738;9.226;2023-02-21T15:22:20;17.40;51.50
1379;DHT22;683;48.738;9.226;2023-02-21T15:25:17;17.10;51.60
1379;DHT22;683;48.738;9.226;2023-02-21T15:28:02;16.90;52.40
1379;DHT22;683;48.738;9.226;2023-02-21T15:30:38;16.70;52.80
1379;DHT22;683;48.738;9.226;2023-02-21T15:33:16;16.50;53.00
1379;DHT22;683;48.738;9.226;2023-02-21T15:35:50;16.40;53.40
1379;DHT22;683;48.738;9.226;2023-02-21T15:38:22;16.20;53.80
1379;DHT22;683;48.738;9.226;2023-02-21T15:40:54;16.10;53.70
1379;DHT22;683;48.738;9.226;2023-02-21T15:43:35;15.90;54.20
1379;DHT22;683;48.738;9.226;2023-02-21T15:46:07;15.80;54.70
1379;DHT22;683;48.738;9.226;2023-02-21T15:48:37;15.70;55.10
1379;DHT22;683;48.738;9.226;2023-02-21T15:51:08;15.60;55.10
1379;DHT22;683;48.738;9.226;2023-02-21T15:53:37;15.50;55.50
1379;DHT22;683;48.738;9.226;2023-02-21T15:56:20;15.30;55.50
1379;DHT22;683;48.738;9.226;2023-02-21T15:59:15;15.20;55.70
1379;DHT22;683;48.738;9.226;2023-02-21T16:02:14;15.10;56.30
1379;DHT22;683;48.738;9.226;2023-02-21T16:04:43;15.00;57.50
1379;DHT22;683;48.738;9.226;2023-02-21T16:07:16;14.90;57.80
1379;DHT22;683;48.738;9.226;2023-02-21T16:09:47;14.80;58.20
1379;DHT22;683;48.738;9.226;2023-02-21T16:12:27;14.70;58.60
1379;DHT22;683;48.738;9.226;2023-02-21T16:14:59;14.50;59.00
1379;DHT22;683;48.738;9.226;2023-02-21T16:17:29;14.40;59.50
1379;DHT22;683;48.738;9.226;2023-02-21T16:20:00;14.30;60.00
1379;DHT22;683;48.738;9.226;2023-02-21T16:22:33;14.20;60.20
1379;DHT22;683;48.738;9.226;2023-02-21T16:25:06;14.00;60.60
1379;DHT22;683;48.738;9.226;2023-02-21T16:27:33;13.90;61.50
1379;DHT22;683;48.738;9.226;2023-02-21T16:30:03;13.80;61.80
1379;DHT22;683;48.738;9.226;2023-02-21T16:32:31;13.70;62.60
1379;DHT22;683;48.738;9.226;2023-02-21T16:35:00;13.60;63.50
1379;DHT22;683;48.738;9.226;2023-02-21T16:37:27;13.50;64.20
1379;DHT22;683;48.738;9.226;2023-02-21T16:39:55;13.40;65.00
1379;DHT22;683;48.738;9.226;2023-02-21T16:42:22;13.30;65.50
1379;DHT22;683;48.738;9.226;2023-02-21T16:44:50;13.20;66.20
1379;DHT22;683;48.738;9.226;2023-02-21T16:47:20;13.10;66.60
1379;DHT22;683;48.738;9.226;2023-02-21T16:49:48;12.90;66.90
1379;DHT22;683;48.738;9.226;2023-02-21T16:52:16;12.80;67.50
1379;DHT22;683;48.738;9.226;2023-02-21T16:54:43;12.70;67.90
1379;DHT22;683;48.738;9.226;2023-02-21T16:57:11;12.60;68.70
1379;DHT22;683;48.738;9.226;2023-02-21T16:59:38;12.50;69.00
1379;DHT22;683;48.738;9.226;2023-02-21T17:02:12;12.40;69.60
1379;DHT22;683;48.738;9.226;2023-02-21T17:04:42;12.30;69.70
1379;DHT22;683;48.738;9.226;2023-02-21T17:07:09;12.10;70.10
1379;DHT22;683;48.738;9.226;2023-02-21T17:09:37;12.00;70.40
1379;DHT22;683;48.738;9.226;2023-02-21T17:12:05;11.90;70.90
1379;DHT22;683;48.738;9.226;2023-02-21T17:14:33;11.80;71.50
1379;DHT22;683;48.738;9.226;2023-02-21T17:17:00;11.80;71.90
1379;DHT22;683;48.738;9.226;2023-02-21T17:19:28;11.60;71.70
1379;DHT22;683;48.738;9.226;2023-02-21T17:21:56;11.50;72.20
1379;DHT22;683;48.738;9.226;2023-02-21T17:24:25;11.50;72.80
1379;DHT22;683;48.738;9.226;2023-02-21T17:26:52;11.40;73.20
1379;DHT22;683;48.738;9.226;2023-02-21T17:29:20;11.30;73.80
1379;DHT22;683;48.738;9.226;2023-02-21T17:31:51;11.10;74.20